x

8452951 - Potter Cove, Prudence Island, Ri (ptcr1) Weather Station

5:30 - Mon 20th Oct 2014 All times are EDT. -4 hours from GMT.

  • Wind
    9mph, 14mph gusts
  • Luft Temp 53°f
  • Sea Pressure 1015.1mb
  • 8452951 - Potter Cove, Prudence Island, Ri
  • 8452951 - Potter Cove, Prudence Island, Ri

More Historic Weather Station data

Upgrade to MSW Pro to gain access to the past 30 days of data for over 8000 Wavebouys and Weather Stations around the globe.

Join Pro

Comparision Forecast

View Surf forecast
   
Mo 10/20 5:30 9 14 mph 1015.1mb 53f
5:24 9 15 mph 1015.1mb 54f
5:18 9 17 mph 1015.2mb 54f
5:12 10 15 mph 1015.2mb 54f
5:06 11 18 mph 1015.1mb 54f
5:00 10 18 mph 1015.1mb 54f
4:54 10 18 mph 1015mb 55f
4:48 10 18 mph 1014.9mb 55f
4:42 11 21 mph 1015mb 55f
4:36 9 15 mph 1015.1mb 55f
4:30 10 17 mph 1015.2mb 55f
4:24 9 14 mph 1015.2mb 55f
4:18 8 14 mph 1015mb 56f
4:12 10 15 mph 1015.1mb 56f
4:06 9 15 mph 1015.1mb 57f
4:00 9 16 mph 1015.2mb 56f
3:54 11 21 mph 1015.3mb 56f
3:48 8 13 mph 1015.4mb 55f
3:42 9 16 mph 1015.4mb 55f
3:36 10 16 mph 1015.3mb 55f
3:30 9 14 mph 1015.1mb 55f
3:24 9 15 mph 1015mb 56f
3:18 9 15 mph 1015.1mb 55f
3:12 7 14 mph 1015.2mb 55f
3:06 11 18 mph 1015.5mb 54f
3:00 11 18 mph 1015.3mb 55f
2:54 13 22 mph 1015.4mb 54f
2:48 11 18 mph 1015.5mb 54f
2:42 8 16 mph 1015.6mb 54f
2:36 7 11 mph 1015.6mb 54f
2:30 8 13 mph 1015.6mb 54f
2:24 7 10 mph 1015.6mb 54f
2:18 8 15 mph 1015.5mb 54f
2:12 9 15 mph 1015.6mb 55f
2:06 8 13 mph 1015.6mb 55f
2:00 6 10 mph 1015.5mb 55f
1:54 7 11 mph 1015.6mb 54f
1:48 6 11 mph 1015.7mb 53f
1:42 8 14 mph 1015.8mb 53f
1:36 9 15 mph 1015.8mb 53f
1:30 8 14 mph 1015.8mb 54f
1:24 5 10 mph 1016mb 54f
1:18 3 7 mph 1016mb 54f
1:12 3 7 mph 1016.1mb 54f
1:06 5 9 mph 1016.3mb 54f
1:00 5 7 mph 1016.3mb 55f
12:54 6 9 mph 1016.4mb 54f
12:48 6 9 mph 1016.6mb 53f
12:42 6 10 mph 1016.7mb 52f
12:36 5 9 mph 1016.8mb 52f
12:30 3 8 mph 1016.8mb 53f
12:24 5 8 mph 1016.9mb 53f
12:18 7 11 mph 1017.1mb 52f
12:12 6 11 mph 1017.3mb 53f
12:06 7 14 mph 1017.4mb 51f
12:00 7 11 mph 1017.5mb 51f
11:54 6 10 mph 1017.6mb 51f
11:48 8 14 mph 1017.8mb 51f
11:42 8 14 mph 1017.8mb 51f
11:36 9 14 mph 1018mb 50f
11:30 7 14 mph 1018mb 51f
11:24 6 10 mph 1018.1mb 50f
11:18 7 11 mph 1018.2mb 50f
11:12 8 13 mph 1018.2mb 49f
11:06 7 13 mph 1018.3mb 49f
11:00 8 15 mph 1018.2mb 49f
10:54 7 13 mph 1018.1mb 49f
10:48 7 11 mph 1018.1mb 49f
10:42 7 15 mph 1018.1mb 49f
10:36 7 11 mph 1018.1mb 48f
10:30 8 14 mph 1018.1mb 47f
10:24 8 13 mph 1018mb 48f
10:18 7 13 mph 1018.1mb 47f
10:12 8 13 mph 1018.2mb 47f
10:06 6 11 mph 1018.2mb 47f
10:00 7 14 mph 1018.2mb 47f
9:54 7 9 mph 1018.3mb 46f
9:48 7 14 mph 1018.3mb 45f
9:42 7 11 mph 1018.3mb 45f
9:36 6 9 mph 1018.3mb 46f
9:30 7 11 mph 1018.3mb 45f
9:24 8 11 mph 1018.3mb 44f
9:18 10 15 mph 1018.2mb 44f
9:12 9 14 mph 1018.3mb 44f
9:06 8 15 mph 1018.3mb 43f
9:00 8 14 mph 1018.3mb 43f
8:54 8 15 mph 1018.3mb 43f
8:48 7 14 mph 1018.4mb 43f
8:42 8 13 mph 1018.4mb 42f
8:36 8 14 mph 1018.4mb 42f
8:30 8 13 mph 1018.3mb 42f
8:24 9 14 mph 1018.3mb 42f
8:18 7 10 mph 1018.1mb 42f
8:12 7 13 mph 1018mb 42f
8:06 6 10 mph 1018mb 41f
8:00 6 9 mph 1017.9mb 41f
7:54 7 14 mph 1017.7mb 40f
7:48 7 13 mph 1017.6mb 40f
7:42 7 11 mph 1017.5mb 40f
7:36 7 11 mph 1017.5mb 40f
7:30 7 11 mph 1017.5mb 40f
7:24 7 11 mph 1017.3mb 40f
7:18 7 10 mph 1017.2mb 40f
7:12 7 11 mph 1017.2mb 40f
7:06 8 14 mph 1017.3mb 39f
7:00 7 10 mph 1017.4mb 39f
6:54 6 11 mph 1017.3mb 38f
6:48 6 10 mph 1017.3mb 38f
6:42 7 13 mph 1017.3mb 39f
6:36 7 10 mph 1017.2mb 39f
6:30 7 11 mph 1017.1mb 38f
6:24 8 16 mph 1017.1mb 39f
6:18 6 10 mph 1016.9mb 39f
6:12 7 11 mph 1016.9mb 39f
6:06 8 11 mph 1016.7mb 39f
6:00 7 10 mph 1016.8mb 39f
5:54 6 9 mph 1016.8mb 39f
5:48 6 10 mph 1016.8mb 39f
5:42 5 8 mph 1016.6mb 39f
5:36 6 11 mph 1016.7mb 39f
5:30 6 9 mph 1016.6mb 39f
5:24 7 10 mph 1016.7mb 39f
5:18 8 11 mph 1016.7mb 39f
5:12 6 9 mph 1016.6mb 39f
5:06 6 9 mph 1016.5mb 40f
5:00 7 11 mph 1016.5mb 40f
4:54 7 10 mph 1016.4mb 40f
4:48 7 10 mph 1016.4mb 40f
4:42 6 10 mph 1016.1mb 40f
4:36 5 9 mph 1016.1mb 40f
4:30 6 11 mph 1016mb 40f
4:24 7 13 mph 1016mb 40f
4:18 6 11 mph 1016.1mb 40f
4:12 5 10 mph 1016.1mb 40f
4:06 5 11 mph 1016mb 40f
4:00 5 9 mph 1016mb 40f
3:54 6 11 mph 1015.9mb 40f
3:48 6 9 mph 1015.7mb 40f
3:42 7 16 mph 1015.7mb 40f
3:36 6 13 mph 1015.6mb 41f
3:30 6 10 mph 1015.6mb 40f
3:24 5 8 mph 1015.7mb 40f
3:18 6 11 mph 1015.8mb 41f
3:12 6 9 mph 1015.8mb 40f
3:06 3 8 mph 1015.7mb 41f
3:00 6 13 mph 1015.7mb 41f
2:54 6 10 mph 1015.7mb 41f
2:48 6 9 mph 1015.6mb 41f
2:42 6 14 mph 1015.6mb 41f
2:36 7 11 mph 1015.6mb 41f
2:30 7 17 mph 1015.6mb 41f
2:24 6 11 mph 1015.5mb 41f
2:18 6 11 mph 1015.6mb 41f
2:12 7 13 mph 1015.6mb 42f
2:06 5 11 mph 1015.5mb 41f
2:00 6 11 mph 1015.6mb 42f
1:54 7 15 mph 1015.6mb 42f
1:48 5 11 mph 1015.5mb 41f
1:42 6 9 mph 1015.3mb 42f
1:36 6 13 mph 1015.4mb 41f
1:30 5 9 mph 1015.5mb 41f
1:24 7 15 mph 1015.5mb 42f
1:18 8 13 mph 1015.5mb 42f
1:12 8 14 mph 1015.5mb 42f
1:06 9 17 mph 1015.3mb 42f
1:00 7 15 mph 1015.3mb 42f
12:48 9 15 mph 1015.3mb 42f
12:42 10 22 mph 1015mb 42f
12:36 11 18 mph 1015mb 42f
12:30 11 18 mph 1014.9mb 42f
12:24 9 16 mph 1014.9mb 42f
12:18 9 18 mph 1014.8mb 43f
12:12 9 15 mph 1014.8mb 43f
12:06 8 16 mph 1014.7mb 43f
12:00 6 15 mph 1014.6mb 43f
So 10/19 11:30 8 17 mph 1014.2mb 44f
11:24 8 17 mph 1014.2mb 44f
11:18 10 22 mph 1014.1mb 44f
11:12 8 20 mph 1014mb 44f
11:06 10 25 mph 1014mb 44f
11:00 9 17 mph 1014mb 44f
10:54 13 23 mph 1014mb 44f
10:48 11 20 mph 1013.9mb 44f
10:42 13 23 mph 1013.8mb 44f
10:36 11 17 mph 1013.8mb 44f
10:30 11 18 mph 1013.8mb -
10:24 10 23 mph 1013.7mb -
10:18 11 20 mph 1013.6mb 44f
10:12 13 22 mph 1013.6mb 45f
10:06 10 20 mph 1013.5mb 45f
10:00 11 21 mph 1013.5mb 45f
9:54 10 20 mph 1013.5mb 45f
9:48 11 20 mph 1013.4mb 45f
9:42 10 18 mph 1013.4mb 46f
9:36 9 17 mph 1013.4mb 46f
9:30 9 18 mph 1013.3mb 46f
9:24 10 20 mph 1013.3mb 46f
9:18 10 17 mph 1013.2mb 47f
9:12 10 16 mph 1013.1mb 47f
9:06 8 14 mph 1013.1mb 47f
9:00 7 15 mph 1013mb 47f
8:54 5 8 mph 1013mb 47f
8:48 6 13 mph 1013mb 47f
8:42 6 15 mph 1012.9mb 47f
8:36 6 14 mph 1012.8mb 47f
8:30 6 10 mph 1012.7mb 47f
8:24 8 17 mph 1012.6mb 48f
8:18 7 14 mph 1012.6mb 48f
8:12 5 15 mph 1012.5mb 48f
8:06 7 14 mph 1012.4mb 48f
8:00 6 13 mph 1012.3mb 48f
7:54 6 11 mph 1012.3mb 48f
7:48 7 13 mph 1012.2mb 48f
7:42 7 14 mph 1012.2mb 48f
7:36 6 13 mph 1012.1mb 48f
7:30 7 16 mph 1012.1mb 48f
7:24 7 14 mph 1012mb 49f
7:18 9 17 mph 1012mb 49f
7:12 6 13 mph 1011.9mb 49f
7:06 6 11 mph 1011.8mb 49f
7:00 6 13 mph 1011.7mb 49f
6:54 8 18 mph 1011.5mb 49f
6:48 7 15 mph 1011.4mb 49f
6:42 6 11 mph 1011.3mb 49f
6:36 8 17 mph 1011.2mb 50f
6:30 7 14 mph 1011.1mb 50f
6:24 6 11 mph 1011mb 51f
6:18 7 16 mph 1010.9mb 51f
6:12 7 15 mph 1010.8mb 51f
6:06 8 17 mph 1010.7mb 51f
6:00 8 22 mph 1010.5mb 51f
5:54 8 18 mph 1010.4mb 51f
5:48 9 21 mph 1010.3mb 51f
5:42 7 15 mph 1010.2mb 51f
5:36 7 14 mph 1010.1mb 51f
5:30 8 15 mph 1010mb 51f
5:24 7 14 mph 1009.9mb 51f
5:18 8 17 mph 1009.8mb 51f
5:12 7 16 mph 1009.7mb 51f
5:06 6 13 mph 1009.6mb 51f
5:00 7 15 mph 1009.5mb 52f
4:54 7 14 mph 1009.5mb 52f
4:48 7 18 mph 1009.4mb 52f
4:42 7 15 mph 1009.3mb 52f
4:36 8 17 mph 1009.3mb 53f
4:30 9 20 mph 1009.1mb 53f
4:24 8 16 mph 1009.1mb 53f
4:18 7 15 mph 1009.1mb 52f
4:12 8 16 mph 1009mb 53f
4:06 8 15 mph 1009mb 53f
4:00 8 15 mph 1009mb 53f
3:54 8 14 mph 1008.9mb 54f
3:48 8 16 mph 1008.9mb 53f
3:42 5 11 mph 1008.8mb 54f
3:36 7 14 mph 1008.9mb 53f
3:30 7 13 mph 1008.9mb 53f
3:24 9 21 mph 1008.9mb 53f
3:18 10 23 mph 1008.7mb 53f
3:12 6 14 mph 1008.6mb 54f
3:06 7 17 mph 1008.5mb 53f
3:00 7 15 mph 1008.4mb 54f
2:54 5 10 mph 1008.4mb 54f
2:48 9 18 mph 1008.3mb 53f
2:42 8 17 mph 1008.2mb 54f
2:36 6 11 mph 1008.1mb 54f
2:30 7 14 mph 1008mb 54f
2:24 8 15 mph 1007.8mb 55f
2:18 8 14 mph 1007.7mb 54f
2:12 6 13 mph 1007.7mb 54f
2:06 8 17 mph 1007.7mb 54f
2:00 10 20 mph 1007.7mb 53f
1:54 10 21 mph 1007.6mb 54f
1:48 9 17 mph 1007.6mb 54f
1:42 7 15 mph 1007.5mb 55f
1:36 3 15 mph 1007.5mb 57f
1:30 8 14 mph 1007.3mb 57f
1:24 8 14 mph 1007.2mb 57f
1:18 6 11 mph 1007.1mb 55f
1:12 6 15 mph 1007.1mb 55f
1:06 9 15 mph 1007.2mb 55f
1:00 9 17 mph 1007.1mb 56f
12:54 9 16 mph 1007.1mb 55f
12:48 6 20 mph 1007.2mb 56f
12:42 9 16 mph 1007.3mb 55f
12:36 9 16 mph 1007.3mb 55f
12:30 7 17 mph 1007.4mb 55f
12:24 8 17 mph 1007.4mb 55f
12:18 9 18 mph 1007.4mb 54f
12:12 11 20 mph 1007.3mb 54f
12:06 6 17 mph 1007.5mb 55f
12:00 7 14 mph 1007.7mb 55f
11:54 10 20 mph 1007.5mb 54f
11:48 11 23 mph 1007.3mb 53f
11:42 9 18 mph 1007mb 54f
11:36 10 20 mph 1007.7mb 54f
11:30 8 16 mph 1008.2mb 53f
11:24 8 16 mph 1008.4mb 53f
11:18 7 13 mph 1008.3mb 53f
11:12 9 18 mph 1008.3mb 53f
11:06 11 20 mph 1008.4mb 52f
11:00 9 17 mph 1008.3mb 52f
10:54 9 16 mph 1008.2mb 52f
10:48 9 16 mph 1008.2mb 52f
10:42 7 16 mph 1008.1mb 52f
10:36 10 22 mph 1008mb 52f
10:30 9 18 mph 1007.9mb 52f
10:24 9 17 mph 1007.8mb 51f
10:18 9 20 mph 1007.6mb 51f
10:12 7 14 mph 1007.3mb 52f
10:06 8 16 mph 1007.4mb 52f
10:00 8 15 mph 1007.7mb 52f
9:54 7 15 mph 1007.9mb 52f
9:48 8 15 mph 1007.9mb 52f
9:42 6 14 mph 1007.9mb 52f
9:36 8 18 mph 1008mb 52f
9:30 8 18 mph 1008mb 52f
9:24 7 13 mph 1007.9mb 51f
9:18 7 15 mph 1007.9mb 51f
9:12 8 15 mph 1007.9mb 51f
9:06 7 16 mph 1007.9mb 52f
9:00 9 17 mph 1007.8mb 52f
8:54 8 18 mph 1007.8mb 52f
8:48 7 13 mph 1007.7mb 52f
8:42 5 10 mph 1007.6mb 52f
8:36 6 10 mph 1007.6mb 52f
8:30 7 14 mph 1007.5mb 52f
8:24 7 14 mph 1007.4mb 52f
8:18 7 16 mph 1007.3mb 52f
8:12  -  mph 1007.3mb 52f
8:06  -  mph 1007.2mb 52f
8:00  -  mph 1007.1mb 53f
7:54  -  mph 1007mb 53f
7:48  -  mph 1007mb 53f
5:12 6 11 mph 1004.4mb 54f
5:06 6 10 mph 1004.2mb 54f
5:00 5 11 mph 1004.1mb 54f
4:54 6 11 mph 1004mb 54f
4:48 6 9 mph 1004mb 54f
4:42 7 13 mph 1004mb 55f
4:36 7 11 mph 1003.8mb 55f
4:30 6 10 mph 1003.8mb 55f
4:24 6 11 mph 1003.9mb 55f
4:18 5 10 mph 1003.9mb 55f
4:12 6 9 mph 1003.7mb 55f
4:06 6 11 mph 1003.6mb 55f
4:00 5 7 mph 1003.4mb 55f
3:54 5 9 mph 1003.4mb 55f
3:48 5 8 mph 1003.3mb 54f
3:42 6 9 mph 1003.2mb 55f
3:36 6 9 mph 1003.2mb 55f
3:30 5 9 mph 1003.2mb 54f
3:24 3 8 mph 1003.1mb 54f
3:18 6 8 mph 1003.1mb 55f
3:12 5 9 mph 1003.1mb 54f
3:06 5 8 mph 1003.1mb 54f
3:00 6 8 mph 1003.1mb 54f
2:54 7 11 mph 1003.1mb 54f
2:48 3 7 mph 1003.1mb 54f
2:42 5 7 mph 1003.2mb 55f
2:36 6 10 mph 1003.3mb 55f
2:30 6 10 mph 1003.4mb 55f
2:24 7 10 mph 1003.4mb 55f
2:18 5 8 mph 1003.3mb 55f
2:12 6 9 mph 1003.2mb 55f
2:06 7 10 mph 1003.2mb 55f
2:00 6 10 mph 1003.2mb 55f
1:54 6 9 mph 1003.2mb 55f
1:48 5 8 mph 1003.2mb 55f
1:42 3 6 mph 1003.1mb 55f
1:36 6 8 mph 1003mb 55f
1:30 6 10 mph 1002.9mb 55f
1:24 6 8 mph 1002.9mb 55f
1:18 5 9 mph 1002.8mb 55f
1:12 6 10 mph 1002.8mb 55f
1:06 3 11 mph 1002.8mb 55f
1:00 6 10 mph 1002.8mb 55f
12:54 6 9 mph 1002.9mb 56f
12:48 6 8 mph 1002.9mb 56f
12:42 5 7 mph 1002.9mb 56f
12:36 5 9 mph 1002.9mb 56f
12:30 5 9 mph 1002.8mb 56f
12:24 5 9 mph 1002.8mb 56f
12:18 3 6 mph 1002.8mb 56f
12:12 5 8 mph 1002.7mb 56f
12:06 3 5 mph 1002.6mb 56f
12:00 3 7 mph 1002.5mb 56f
Sa 10/18 11:54 3 6 mph 1002.4mb 56f
11:48 3 7 mph 1002.5mb 56f
11:42 5 8 mph 1002.6mb 56f
11:36 3 6 mph 1002.6mb 56f
11:30 3 6 mph 1002.6mb 56f
11:24 5 8 mph 1002.6mb 56f
11:18 7 10 mph 1002.6mb 57f
11:12 5 11 mph 1002.6mb 57f
11:06 5 8 mph 1002.5mb 57f
11:00 5 9 mph 1002.3mb 57f
10:54 3 6 mph 1002.3mb 57f
10:48 5 9 mph 1002.2mb 57f
10:42 6 10 mph 1002.2mb 57f
10:36 6 9 mph 1002.2mb 57f
10:30 3 7 mph 1002.2mb 57f
10:24 6 9 mph 1002.2mb 57f
10:18 6 10 mph 1002.2mb 57f
10:12 7 11 mph 1002.1mb 57f
10:06 6 11 mph 1002.1mb 58f
10:00 6 10 mph 1002.1mb 58f
9:54 5 8 mph 1002mb 58f
9:48 6 10 mph 1002mb 58f
9:42 7 10 mph 1002.1mb 58f
9:36 7 11 mph 1002.2mb 57f
9:30 6 9 mph 1002.2mb 58f
9:24 7 13 mph 1002.1mb 58f
9:18 7 14 mph 1002.1mb 58f
9:12 7 11 mph 1002mb 58f
9:06 7 11 mph 1001.9mb 58f
9:00 6 10 mph 1001.8mb 58f
8:54 6 13 mph 1001.9mb 58f
8:48 6 11 mph 1001.8mb 58f
8:42 8 14 mph 1001.7mb 58f
8:36 7 13 mph 1001.6mb 57f
8:30 7 11 mph 1001.5mb 58f
8:24 9 14 mph 1001.5mb 58f
8:18 7 10 mph 1001.5mb 58f
8:12 7 10 mph 1001.4mb 58f
8:06 7 10 mph 1001.3mb 58f
8:00 8 13 mph 1001.2mb 58f
7:54 6 10 mph 1001.2mb 58f
7:48 6 9 mph 1001.1mb 57f
7:42 6 8 mph 1001.1mb 57f
7:36 5 8 mph 1001mb 57f
7:30 5 8 mph 1000.9mb 57f
7:24 5 8 mph 1000.9mb 57f
7:18 3 5 mph 1000.9mb 57f
7:12 5 8 mph 1000.9mb 57f
7:06 5 8 mph 1000.8mb 57f
7:00 5 9 mph 1000.9mb 57f
6:54 7 10 mph 1000.9mb 57f
6:48 8 15 mph 1000.8mb 57f
6:42 13 21 mph 1000.7mb 59f
6:36 10 17 mph 1000.7mb 59f
6:30 9 15 mph 999.8mb 64f
6:24 9 14 mph 999.7mb 64f
6:18 9 14 mph 999.6mb 65f
6:12 8 13 mph 999.5mb 65f
6:06 7 13 mph 999.4mb 65f
6:00 9 14 mph 999.3mb 65f
5:54 10 16 mph 999.2mb 65f
5:48 9 15 mph 999.2mb 65f
5:42 8 14 mph 999.1mb 65f
5:36 8 13 mph 998.9mb 65f
5:30 8 11 mph 998.9mb 66f
5:24 8 13 mph 998.8mb 66f
5:18 6 9 mph 998.7mb 66f
5:12 6 11 mph 998.7mb 66f
5:06 6 9 mph 998.7mb 66f
5:00 7 10 mph 998.8mb 66f
4:54 7 11 mph 998.7mb 67f
4:48 6 9 mph 998.7mb 67f
4:42 8 11 mph 998.7mb 67f
4:36 7 11 mph 998.7mb 67f
4:30 8 13 mph 998.6mb 67f
4:24 7 14 mph 998.6mb 68f
4:18 7 13 mph 998.7mb 68f
4:12 8 14 mph 998.7mb 69f
4:06 8 13 mph 998.7mb 69f
4:00 11 17 mph 998.7mb 69f
3:54 9 14 mph 998.7mb 69f
3:48 9 16 mph 998.7mb 70f
3:42 10 17 mph 998.7mb 69f
3:36 9 16 mph 998.7mb 69f
3:30 8 15 mph 998.8mb 68f
3:24 9 15 mph 998.9mb 68f
3:18 6 10 mph 998.8mb 69f
3:12 9 17 mph 998.9mb 68f
3:06 5 8 mph 999mb 68f
3:00 5 8 mph 999mb 68f
2:54 7 11 mph 999mb 68f
2:48 8 14 mph 999mb 69f
2:42 7 14 mph 999mb 68f
2:36 8 13 mph 999.1mb 67f
2:30 6 10 mph 999mb 68f
2:24 7 13 mph 999mb 68f
2:18 8 14 mph 999mb 68f
2:12 7 13 mph 999.1mb 68f
2:06 7 10 mph 999.2mb 67f
2:00 7 11 mph 999.3mb 67f
1:54 7 14 mph 999.3mb 67f
1:48 8 15 mph 999.3mb 68f
1:42 6 13 mph 999.5mb 68f
1:36 6 10 mph 999.5mb 67f
1:30 6 10 mph 999.7mb 67f
1:24 7 14 mph 999.8mb 67f
1:18 7 11 mph 999.9mb 67f
1:12 7 14 mph 1000mb 68f
1:06 7 11 mph 1000mb 68f
1:00 8 14 mph 1000mb 68f
12:54 8 13 mph 1000.1mb 68f
12:48 7 15 mph 1000.1mb 68f
12:42 7 14 mph 1000.2mb 68f
12:36 8 14 mph 1000.3mb 68f
12:30 6 14 mph 1000.4mb 68f
12:24 7 16 mph 1000.5mb 69f
12:18 8 16 mph 1000.4mb 70f
12:12 9 17 mph 1000.4mb 70f
12:06 8 16 mph 1000.6mb 69f
12:00 8 15 mph 1000.6mb 69f
11:54 7 11 mph 1000.8mb 69f
11:48 7 13 mph 1000.8mb 69f
11:42 6 15 mph 1000.9mb 69f
11:36 7 15 mph 1001mb 69f
11:30 8 15 mph 1001mb 69f
11:24 7 13 mph 1001mb 68f
11:18 7 13 mph 1001mb 69f
11:12 6 15 mph 1000.9mb 69f
11:06 8 15 mph 1001mb 68f
11:00 7 17 mph 1001.2mb 68f
10:54 7 15 mph 1001.2mb 68f
10:48 7 14 mph 1001.3mb 68f
10:42 7 13 mph 1001.3mb 68f
10:36 7 14 mph 1001.3mb 66f
10:30 8 14 mph 1001.3mb 67f
10:24 8 18 mph 1001.3mb 67f
10:18 7 16 mph 1001.2mb 67f
10:12 7 14 mph 1001.1mb 67f
10:06 7 13 mph 1001.2mb 67f
10:00 7 14 mph 1001.3mb 67f
9:54 7 13 mph 1001.5mb 67f
9:48 7 15 mph 1001.6mb 66f
9:42 8 14 mph 1001.7mb 66f
9:36 8 14 mph 1001.8mb 66f
9:30 7 11 mph 1001.9mb 66f
9:24 7 11 mph 1002mb 66f
9:18 7 13 mph 1001.9mb 66f
9:12 6 11 mph 1001.9mb 65f
9:06 6 13 mph 1002mb 65f
9:00 6 10 mph 1002.1mb 65f
8:54 6 11 mph 1002.1mb 64f
8:48 5 10 mph 1002.2mb 64f
8:42 6 11 mph 1002.3mb 64f
8:36 5 9 mph 1002.4mb 64f
8:30 5 11 mph 1002.5mb 64f
8:24 5 10 mph 1002.5mb 64f
8:18 6 9 mph 1002.5mb 64f
8:12 5 9 mph 1002.5mb 64f
8:06 5 8 mph 1002.4mb 64f
8:00 6 11 mph 1002.4mb 64f
7:54 3 7 mph 1002.3mb 64f
7:48 5 8 mph 1002.3mb 63f
7:42 5 9 mph 1002.1mb 63f
7:36 7 13 mph 1002.1mb 63f
7:30 6 11 mph 1002.2mb 63f
7:24 6 13 mph 1002.2mb 63f
7:18 6 10 mph 1002.2mb 63f
7:12 6 14 mph 1002.2mb 63f
7:06 6 11 mph 1002.2mb 62f
7:00 6 11 mph 1002.2mb 62f
6:54 5 9 mph 1002.3mb 62f
6:48 6 10 mph 1002.3mb 63f
6:42 6 11 mph 1002.3mb 63f
6:36 5 9 mph 1002.3mb 62f
6:30 5 10 mph 1002.2mb 62f
6:24 5 9 mph 1002.3mb 62f
6:18 5 9 mph 1002.4mb 62f
6:12 5 9 mph 1002.4mb 62f
6:06 5 10 mph 1002.4mb 62f
6:00 3 8 mph 1002.3mb 62f
5:54 3 7 mph 1002.3mb 62f
5:48 5 8 mph 1002.4mb 62f
5:42 5 10 mph 1002.4mb 62f
5:36 5 9 mph 1002.4mb 62f
5:30 3 7 mph 1002.4mb 62f
5:24 5 8 mph 1002.5mb 62f
5:18 3 7 mph 1002.5mb 62f
5:12 5 8 mph 1002.6mb 62f
5:06 6 9 mph 1002.6mb 62f
5:00 6 9 mph 1002.8mb 62f
4:54 5 8 mph 1002.8mb 62f
4:48 3 9 mph 1002.8mb 62f
4:42 3 8 mph 1002.8mb 62f
4:36 5 9 mph 1002.9mb 62f
4:30 5 10 mph 1002.9mb 62f
4:24 5 9 mph 1002.9mb 62f
4:18 3 7 mph 1002.9mb 62f
4:12 5 9 mph 1002.9mb 62f
4:06 5 9 mph 1002.9mb 62f
4:00 5 10 mph 1003mb 62f
3:54 5 8 mph 1003mb 62f
3:48 5 9 mph 1003mb 62f
3:42 5 10 mph 1003.1mb 62f
3:36 5 7 mph 1003.1mb 62f
3:30 5 9 mph 1003mb 62f
3:24 7 11 mph 1003.1mb 62f
3:18 6 13 mph 1003.1mb 62f
3:12 7 14 mph 1003.3mb 62f
3:06 7 10 mph 1003.3mb 62f
3:00 6 9 mph 1003.4mb 62f
2:54 6 9 mph 1003.5mb 62f
2:48 5 9 mph 1003.5mb 62f
2:42 5 7 mph 1003.5mb 61f
2:36 5 9 mph 1003.6mb 61f
2:30 5 9 mph 1003.6mb 62f
2:24 6 10 mph 1003.6mb 62f
2:18 7 9 mph 1003.7mb 62f
2:12 6 9 mph 1003.7mb 62f
2:06 6 11 mph 1003.7mb 62f
2:00 5 8 mph 1003.7mb 62f
1:54 6 9 mph 1003.8mb 62f
1:48 5 8 mph 1004mb 62f
1:42 5 9 mph 1004mb 62f
1:36 5 8 mph 1004.1mb 61f
1:30 6 10 mph 1004.2mb 61f
1:24 5 8 mph 1004.3mb 62f
1:18 6 13 mph 1004.3mb 62f
1:12 6 10 mph 1004.3mb 62f
1:06 6 9 mph 1004.3mb 62f
1:00 6 10 mph 1004.3mb 62f
12:54 6 8 mph 1004.4mb 61f
12:48 5 8 mph 1004.4mb 61f
12:42 6 9 mph 1004.6mb 61f
12:36 5 8 mph 1004.6mb 62f
12:30 5 9 mph 1004.7mb 62f
12:24 5 8 mph 1004.7mb 62f
12:18 6 10 mph 1004.7mb 62f
12:12 6 11 mph 1004.7mb 62f
12:06 6 8 mph 1004.8mb 62f
12:00 6 9 mph 1004.9mb 62f
Fr 10/17 11:54 6 8 mph 1004.9mb 62f
11:48 6 9 mph 1004.9mb 62f
11:42 5 8 mph 1004.9mb 62f
11:36 6 9 mph 1005mb 62f
11:30 6 10 mph 1005mb -
11:24 6 9 mph - -
11:18 6 9 mph - -
11:12  -  mph 1005.2mb 62f
11:06  -  mph 1005.2mb 62f
11:00  -  mph 1005.3mb 62f
10:54 6 10 mph 1005.4mb 62f
10:48 6 10 mph 1005.4mb 62f
10:18  -  mph - 62f
10:12  -  mph - 62f
10:06  -  mph - 62f
10:00 7 13 mph 1005.6mb 62f
9:54 6 10 mph 1005.6mb 62f
9:48 7 10 mph 1005.6mb 62f
9:42 6 10 mph 1005.5mb 62f
9:36 5 9 mph 1005.5mb 62f
9:30 5 8 mph 1005.5mb 62f
9:24 6 10 mph 1005.4mb 62f
9:18 6 10 mph 1005.4mb 62f
9:12 7 9 mph 1005.4mb 62f
9:06 6 10 mph 1005.4mb 62f
9:00 6 10 mph 1005.3mb 62f
8:54 7 10 mph 1005.4mb 62f
8:48 7 13 mph 1005.4mb 62f
8:42 7 11 mph 1005.4mb 62f
8:36 6 10 mph 1005.4mb 63f
8:30 6 10 mph 1005.4mb 62f
8:24 6 9 mph 1005.4mb 62f
8:18 7 10 mph 1005.4mb 63f
8:12 7 11 mph 1005.4mb 63f
8:06 7 11 mph 1005.5mb 63f
8:00 9 15 mph 1005.4mb 63f
7:54 7 15 mph 1005.4mb 63f
7:48 7 11 mph 1005.4mb 63f
7:42 6 11 mph 1005.4mb 62f
7:36 6 11 mph 1005.4mb 62f
7:30 6 11 mph 1005.4mb 63f
7:24 6 11 mph 1005.4mb 63f
7:18 7 11 mph 1005.3mb 63f
7:12 7 15 mph 1005.3mb 63f
7:06 7 15 mph 1005.2mb 63f
7:00 8 13 mph 1005.2mb 63f
6:54 7 11 mph 1005.2mb 63f
6:48 8 14 mph 1005.1mb 63f
6:42 7 10 mph 1005mb 63f
6:36 8 13 mph 1005.1mb 63f
6:30 7 13 mph 1005.1mb 63f
6:24 7 15 mph 1005mb 64f
6:18 8 13 mph 1004.9mb 64f
6:12 8 14 mph 1004.8mb 64f
6:06 7 14 mph 1004.7mb 64f
6:00 8 13 mph 1004.6mb 64f
5:54 7 13 mph 1004.6mb 64f
5:48 7 14 mph 1004.6mb 64f
5:42 9 15 mph 1004.5mb 65f
5:36 10 16 mph 1004.5mb 65f
5:30 10 17 mph 1004.5mb 65f
5:24 10 16 mph 1004.6mb 65f
5:18 9 17 mph 1004.6mb 65f
5:12 9 15 mph 1004.6mb 66f
5:06 9 15 mph 1004.6mb 66f
5:00 8 15 mph 1004.5mb 66f
4:54 8 11 mph 1004.5mb 66f
4:48 7 14 mph 1004.5mb 67f
4:42 7 13 mph 1004.5mb 67f
4:36 8 15 mph 1004.4mb 67f
4:30 7 15 mph 1004.5mb 67f
4:24 7 13 mph 1004.5mb 67f
4:18 6 14 mph 1004.5mb 68f
4:12 8 14 mph 1004.4mb 68f
4:06 7 11 mph 1004.3mb 68f
4:00 7 13 mph 1004.3mb 68f
3:54 7 13 mph 1004.3mb 69f
3:48 9 15 mph 1004.3mb 69f
3:42 10 17 mph 1004.3mb 69f
3:36 10 17 mph 1004.4mb 69f
3:30 10 16 mph 1004.5mb 69f
3:24 9 17 mph 1004.5mb 69f
3:18 13 24 mph 1004.5mb 69f
3:12 13 22 mph 1004.4mb 69f
3:06 15 24 mph 1004.4mb 69f
3:00 14 21 mph 1004.4mb 69f
2:54 13 24 mph 1004.3mb 69f
2:48 14 22 mph 1004.3mb 69f
2:42 13 21 mph 1004.3mb 69f
2:36 9 20 mph 1004.3mb 69f
2:30 11 21 mph 1004.3mb 69f
2:24 9 16 mph 1004.3mb 69f
2:18 9 20 mph 1004.3mb 69f
2:12 10 16 mph 1004.3mb 69f
2:06 11 23 mph 1004.3mb 70f
2:00 13 18 mph 1004.1mb 69f
1:54 11 20 mph 1004mb 69f
1:48 10 21 mph 1004mb 69f
1:42 9 15 mph 1004mb 70f
1:36 8 14 mph 1004mb 70f
1:30 9 16 mph 1004mb 70f
1:24 9 16 mph 1003.9mb 70f
1:18 10 16 mph 1004mb 70f
1:12 9 20 mph 1004mb 69f
1:06 10 16 mph 1004mb 69f
1:00 9 18 mph 1004.1mb 69f
12:54 9 17 mph 1004.1mb 70f
12:48 9 18 mph 1004.1mb 70f
12:42 11 18 mph 1004.2mb 69f
12:36 11 17 mph 1004.2mb 69f
12:30 13 21 mph 1004.2mb 69f
12:24 11 18 mph 1004.2mb 69f
12:18 9 16 mph 1004.3mb 69f
12:12 10 17 mph 1004.3mb 69f
12:06 13 20 mph 1004.4mb 68f
12:00 10 18 mph 1004.5mb 69f
11:54 10 15 mph 1004.7mb 68f
11:48 9 15 mph 1004.6mb 68f
11:42 9 17 mph 1004.6mb 68f
11:36 11 16 mph 1004.7mb 67f
11:30 9 16 mph 1004.7mb 67f
11:24 10 15 mph 1004.8mb 67f
11:18 9 14 mph 1004.9mb 67f
11:12 8 14 mph 1005mb 67f
11:06 11 17 mph 1004.8mb 66f
11:00 9 15 mph 1004.8mb 66f
10:54 9 17 mph 1004.7mb 66f
10:48 10 15 mph 1004.7mb 66f
10:42 10 18 mph 1004.7mb 65f
10:36 9 14 mph 1004.6mb 65f
10:30 10 15 mph 1004.7mb 65f
10:24 10 17 mph 1004.6mb 65f
10:18 9 15 mph 1004.4mb 65f
10:12 9 16 mph 1004.4mb 65f
10:06 8 15 mph 1004.4mb 65f
10:00 8 13 mph 1004.4mb 64f
9:54 9 15 mph 1004.4mb 64f
9:48 9 13 mph 1004.4mb 64f
9:42 8 14 mph 1004.5mb 64f
9:36 8 14 mph 1004.5mb 64f
9:30 8 13 mph 1004.4mb 63f
9:24 8 13 mph 1004.4mb 63f
9:18 8 14 mph 1004.3mb 63f
9:12 7 10 mph 1004.3mb 62f
9:06 7 10 mph 1004.4mb 62f
9:00 5 11 mph 1004.4mb 63f
8:54 6 10 mph 1004.3mb 63f
8:48 5 7 mph 1004.3mb 62f
8:42 3 6 mph 1004.3mb 62f
8:36 3 8 mph 1004.3mb 62f
8:30 2 5 mph 1004.1mb 61f
8:24 3 6 mph 1004.2mb 61f
8:18 5 7 mph 1004.3mb 61f
8:12 5 7 mph 1004.4mb 61f
8:06 5 8 mph 1004.3mb 61f
8:00 5 8 mph 1004.1mb 61f
7:54 5 7 mph 1004mb 60f
7:48 3 5 mph 1003.8mb 60f
7:42 3 5 mph 1003.7mb 60f
7:36 2 3 mph 1003.6mb 60f
7:30 2 5 mph 1003.5mb 60f
7:24 2 3 mph 1003.4mb 60f
7:18 3 6 mph 1003.3mb 60f
7:12 3 7 mph 1003.3mb 61f
7:06 3 6 mph 1003.2mb 61f
7:00 5 7 mph 1003.2mb 61f
6:54 3 6 mph 1003.2mb 61f
6:48 3 6 mph 1003.2mb 61f
6:42 5 7 mph 1003.1mb 61f
6:36 5 8 mph 1003mb 61f
6:30 6 7 mph 1002.9mb 61f
6:24 6 8 mph 1002.9mb 61f
6:18 6 8 mph 1003mb 61f
6:12 5 8 mph 1003mb 61f
6:06 5 9 mph 1003mb 61f
6:00 6 9 mph 1003mb 61f
5:54 6 10 mph 1002.9mb 62f
5:48 5 9 mph 1002.9mb 62f
5:42 5 6 mph 1002.8mb 62f
5:36 3 7 mph 1002.7mb 62f
5:30 5 7 mph 1002.7mb 62f
5:24 6 8 mph 1002.8mb 62f
5:18 5 8 mph 1002.6mb 62f
5:12 3 6 mph 1002.6mb 62f
5:06 2 5 mph 1002.5mb 61f
5:00 2 3 mph 1002.5mb 61f
4:54 3 6 mph 1002.5mb 62f
4:48 5 7 mph 1002.6mb 62f
4:42 5 7 mph 1002.6mb 62f
4:36 5 8 mph 1002.6mb 62f
4:30 6 8 mph 1002.8mb 62f
4:24 6 9 mph 1002.8mb 62f
4:18 3 6 mph 1002.8mb 62f
4:12 3 6 mph 1002.9mb 62f
4:06 3 6 mph 1002.8mb 62f
4:00 5 7 mph 1003mb 63f
3:54 3 5 mph 1002.9mb 63f
3:48 3 6 mph 1003mb 63f
3:42 3 5 mph 1002.8mb 63f
3:36 2 3 mph 1003mb 63f
3:30 2 5 mph 1002.8mb 63f
3:24  -  2 mph 1002.9mb 63f
3:18 2 5 mph 1002.8mb 63f
3:12 2 3 mph 1002.8mb 63f
3:06 2 5 mph 1003mb 63f
3:00  -  1 mph 1002.2mb 63f
2:54  -  3 mph 1002.9mb 63f
2:48 2 5 mph 1003mb 63f
2:42 2 5 mph 1003.5mb 63f
2:36 2 3 mph 1003.2mb 63f
2:30  -  3 mph 1003.2mb 63f
2:24 2 5 mph 1003.8mb 63f
2:18 1 2 mph 1003.5mb 63f
2:12  -  2 mph 1003.7mb 63f
2:06  -  2 mph 1003.9mb 63f
2:00  -  2 mph 1004.2mb 63f
1:54 2 5 mph 1004.5mb 63f
1:48 2 3 mph 1004.8mb 63f
1:42 2 6 mph 1005mb 63f
1:36 1 3 mph 1004.6mb 63f
1:30 5 8 mph 1004.7mb 63f
1:24 3 6 mph 1005mb 63f
1:18 5 8 mph 1005.3mb 63f
1:12 5 9 mph 1005.4mb 63f
1:06 6 10 mph 1005.1mb 63f
1:00 3 5 mph 1004mb 62f
12:54  -  2 mph 1003.3mb 63f
12:48 1 2 mph 1003.3mb 63f
12:42  -  3 mph 1003.8mb 63f
12:36 3 10 mph 1005.3mb 63f
12:30 5 7 mph 1004.9mb 63f
12:24 3 7 mph 1005.1mb 63f
12:18 5 8 mph 1005.5mb 63f
12:12 3 7 mph 1005.6mb 63f
12:06 3 7 mph 1005.2mb 63f
12:00 3 7 mph 1005.1mb 63f
Do 10/16 11:54 5 8 mph 1005mb 63f
11:48 3 6 mph 1004.8mb 63f
11:42 2 5 mph 1004.8mb 63f
11:36 2 5 mph 1005.1mb 63f
11:30  -  mph 1005mb 63f
11:24  -  mph 1004.9mb 63f
11:18 3 6 mph 1004.6mb 63f
11:12 2 5 mph 1004.7mb 63f
11:06 1 2 mph 1004.6mb 63f
11:00 3 6 mph 1005.5mb 63f
10:54 1 3 mph 1005.1mb 63f
10:48 3 7 mph 1005.7mb 63f
10:42 6 9 mph 1005.4mb 63f
10:36 3 6 mph 1004.9mb 63f
10:30 5 7 mph 1005.7mb 63f